Terminal Aerodrome Forecast
Issued by NWS

Home | Current Version | Previous Version | Text Only | Print | Product List | Glossary On
Versions: 1 2 3 4 5 6 7 8 9 10 11 12 13 14 15 16 17 18
352
FTUS44 KCRP 010536
TAFALI
TAF
KALI 010536Z 0106/0206 15016G22KT P6SM BKN012 OVC250
     FM010730 14007KT P6SM BKN015 OVC250
     FM011500 16010KT P6SM SCT025 BKN150
     FM011900 14012KT P6SM VCTS SCT035CB BKN150
      TEMPO 0120/0124 VRB20G35KT 2SM +TSRA BR OVC015CB
     FM020000 13011KT P6SM VCTS SCT040CB BKN120 PROB30 0200/0204
      VRB15G30KT 2SM +TSRA BR OVC015CB
     FM020500 15006KT P6SM SCT025 BKN250=

USA.gov is the U.S. government's official web portal to all federal, state and local government web resources and services.